Vass, North Carolina
Current Conditions -  °F | °C
As of 3:55 PM on Thursday 23 Oct 2014 (Local Time) from KSOP Reporting Station
Clear Clear  
Wind Chill: 66°   Ceiling: Unl
Heat Index: 66°   Visibility: 10mi
Dew Point: 43°   Wind: 6mph
Humidity: 43%   Direction: 330°NNW
Pressure: 29.95"   Gusts: NA
Location:  35.26°N, 79.28°W
Report Text: KSOP 231955Z AUTO 33005KT 10SM CLR 19/06 A2995 RMK AO1
Loading
Personal Weather Stations






























Interactive Weather Map
Tropical Storm Tracking
New forecast layout! Learn more

10-Day Weather Forecast

Advertisements
Track Severe Weather on mobile